PEW8328 KATL-KBNA
Flight info
| Callsign | PEW8328 |
|---|---|
| Flight time | 0h 41m |
| Altitude | 26000 |
| Route | PENCL2 PENCL JAGIR SWFFT3 |
| Aircraft | A20N/M-SDE2E3FGHIRWXY/LB1 |
Departure
| Time | 2026-05-04 23:27 |
|---|---|
| Airport | Hartsfield Jackson Atlanta International Airport (KATL) |
Arrival
| Time | 2026-05-05 00:09 |
|---|---|
| Airport | Nashville International Airport (KBNA) |
| Time | Latitude | Longitude | Altitude | Speed | Heading |
|---|---|---|---|---|---|
| 2026-05-04 23:16 | 33.64196 | -84.43196 | 1006 ft | 0 kts | 270° |
| 2026-05-04 23:21 | 33.64196 | -84.43165 | 1006 ft | 5 kts | 269° |
| 2026-05-04 23:21 | 33.64188 | -84.43147 | 1006 ft | 0 kts | 5° |
| 2026-05-04 23:22 | 33.64199 | -84.43143 | 1006 ft | 4 kts | 15° |
| 2026-05-04 23:22 | 33.64246 | -84.43130 | 1006 ft | 10 kts | 8° |
| 2026-05-04 23:22 | 33.64329 | -84.43130 | 1006 ft | 14 kts | 0° |
| 2026-05-04 23:23 | 33.64438 | -84.43110 | 1006 ft | 18 kts | 34° |
| 2026-05-04 23:23 | 33.64459 | -84.42962 | 1006 ft | 20 kts | 90° |
| 2026-05-04 23:23 | 33.64460 | -84.42778 | 1006 ft | 24 kts | 89° |
| 2026-05-04 23:23 | 33.64469 | -84.42567 | 1006 ft | 26 kts | 91° |
| 2026-05-04 23:24 | 33.64469 | -84.42333 | 1006 ft | 29 kts | 90° |
| 2026-05-04 23:24 | 33.64540 | -84.42101 | 1006 ft | 31 kts | 76° |
| 2026-05-04 23:24 | 33.64543 | -84.41836 | 1006 ft | 33 kts | 89° |
| 2026-05-04 23:24 | 33.64543 | -84.41559 | 1007 ft | 34 kts | 90° |
| 2026-05-04 23:25 | 33.64543 | -84.41266 | 1007 ft | 36 kts | 90° |
| 2026-05-04 23:25 | 33.64545 | -84.40957 | 1006 ft | 38 kts | 88° |
| 2026-05-04 23:25 | 33.64565 | -84.40776 | 1005 ft | 19 kts | 75° |
| 2026-05-04 23:25 | 33.64574 | -84.40611 | 1005 ft | 16 kts | 75° |
| 2026-05-04 23:26 | 33.64650 | -84.40584 | 1003 ft | 14 kts | 336° |
| 2026-05-04 23:26 | 33.64680 | -84.40695 | 1003 ft | 6 kts | 270° |
| 2026-05-04 23:26 | 33.64680 | -84.40733 | 1004 ft | 30 kts | 270° |
| 2026-05-04 23:26 | 33.64678 | -84.41445 | 1009 ft | 135 kts | 270° |
| 2026-05-04 23:27 | 33.64672 | -84.42873 | 1160 ft | 198 kts | 269° |
| 2026-05-04 23:27 | 33.64708 | -84.44683 | 1524 ft | 237 kts | 277° |
| 2026-05-04 23:27 | 33.65099 | -84.46710 | 2118 ft | 259 kts | 287° |
| 2026-05-04 23:27 | 33.65735 | -84.48767 | 2760 ft | 274 kts | 291° |
| 2026-05-04 23:28 | 33.66526 | -84.50958 | 3148 ft | 288 kts | 294° |
| 2026-05-04 23:28 | 33.67348 | -84.53139 | 3664 ft | 291 kts | 293° |
| 2026-05-04 23:28 | 33.68182 | -84.55335 | 4349 ft | 288 kts | 297° |
| 2026-05-04 23:28 | 33.69450 | -84.57162 | 5054 ft | 286 kts | 322° |
| 2026-05-04 23:29 | 33.71229 | -84.58183 | 5759 ft | 285 kts | 347° |
| 2026-05-04 23:29 | 33.73198 | -84.58329 | 6465 ft | 284 kts | 360° |
| 2026-05-04 23:29 | 33.75171 | -84.58275 | 7170 ft | 283 kts | 1° |
| 2026-05-04 23:29 | 33.77141 | -84.58208 | 7870 ft | 283 kts | 1° |
| 2026-05-04 23:30 | 33.79130 | -84.58152 | 8571 ft | 295 kts | 0° |
| 2026-05-04 23:30 | 33.81259 | -84.58110 | 9296 ft | 317 kts | 0° |
| 2026-05-04 23:30 | 33.83541 | -84.58117 | 10015 ft | 337 kts | 356° |
| 2026-05-04 23:30 | 33.85927 | -84.58510 | 10723 ft | 355 kts | 346° |
| 2026-05-04 23:31 | 33.88369 | -84.59304 | 11434 ft | 371 kts | 344° |
| 2026-05-04 23:31 | 33.90905 | -84.60142 | 12140 ft | 385 kts | 344° |
| 2026-05-04 23:31 | 33.93532 | -84.60997 | 12846 ft | 396 kts | 344° |
| 2026-05-04 23:31 | 33.96233 | -84.61869 | 13550 ft | 407 kts | 345° |
| 2026-05-04 23:32 | 33.98998 | -84.62760 | 14260 ft | 416 kts | 345° |
| 2026-05-04 23:32 | 34.01788 | -84.63659 | 14953 ft | 424 kts | 345° |
| 2026-05-04 23:32 | 34.04659 | -84.64584 | 15655 ft | 430 kts | 345° |
| 2026-05-04 23:32 | 34.07570 | -84.65524 | 16366 ft | 436 kts | 345° |
| 2026-05-04 23:33 | 34.10519 | -84.66477 | 17061 ft | 441 kts | 345° |
| 2026-05-04 23:33 | 34.13503 | -84.67441 | 17762 ft | 446 kts | 345° |
| 2026-05-04 23:33 | 34.16511 | -84.68415 | 18472 ft | 449 kts | 345° |
| 2026-05-04 23:33 | 34.19542 | -84.69397 | 19168 ft | 453 kts | 345° |
| 2026-05-04 23:34 | 34.22588 | -84.70409 | 19866 ft | 455 kts | 342° |
| 2026-05-04 23:34 | 34.25558 | -84.71751 | 20573 ft | 457 kts | 336° |
| 2026-05-04 23:34 | 34.28397 | -84.73503 | 21271 ft | 459 kts | 329° |
| 2026-05-04 23:34 | 34.31125 | -84.75551 | 21808 ft | 465 kts | 328° |
| 2026-05-04 23:35 | 34.33909 | -84.77647 | 22038 ft | 476 kts | 328° |
| 2026-05-04 23:35 | 34.36731 | -84.79765 | 22011 ft | 477 kts | 328° |
| 2026-05-04 23:35 | 34.39551 | -84.81883 | 22006 ft | 477 kts | 328° |
| 2026-05-04 23:35 | 34.42375 | -84.84007 | 22006 ft | 477 kts | 328° |
| 2026-05-04 23:36 | 34.45193 | -84.86130 | 22006 ft | 477 kts | 328° |
| 2026-05-04 23:36 | 34.48011 | -84.88256 | 22006 ft | 477 kts | 328° |
| 2026-05-04 23:36 | 34.50826 | -84.90383 | 22006 ft | 477 kts | 328° |
| 2026-05-04 23:36 | 34.53643 | -84.92513 | 22006 ft | 477 kts | 328° |
| 2026-05-04 23:37 | 34.56420 | -84.94614 | 22006 ft | 477 kts | 328° |
| 2026-05-04 23:37 | 34.59232 | -84.96744 | 22006 ft | 477 kts | 328° |
| 2026-05-04 23:37 | 34.62047 | -84.98878 | 22006 ft | 477 kts | 328° |
| 2026-05-04 23:37 | 34.64861 | -85.01013 | 22006 ft | 477 kts | 328° |
| 2026-05-04 23:38 | 34.67671 | -85.03159 | 22006 ft | 477 kts | 327° |
| 2026-05-04 23:38 | 34.70478 | -85.05328 | 22006 ft | 478 kts | 327° |
| 2026-05-04 23:38 | 34.73282 | -85.07501 | 22006 ft | 477 kts | 327° |
| 2026-05-04 23:38 | 34.76079 | -85.09672 | 22017 ft | 477 kts | 326° |
| 2026-05-04 23:39 | 34.78844 | -85.11885 | 21976 ft | 469 kts | 324° |
| 2026-05-04 23:39 | 34.81500 | -85.14045 | 21725 ft | 447 kts | 324° |
| 2026-05-04 23:39 | 34.84041 | -85.16072 | 21385 ft | 428 kts | 325° |
| 2026-05-04 23:39 | 34.86510 | -85.18001 | 20874 ft | 416 kts | 326° |
| 2026-05-04 23:40 | 34.88920 | -85.19858 | 20353 ft | 405 kts | 326° |
| 2026-05-04 23:40 | 34.91275 | -85.21666 | 19830 ft | 395 kts | 326° |
| 2026-05-04 23:40 | 34.93575 | -85.23430 | 19308 ft | 387 kts | 327° |
| 2026-05-04 23:40 | 34.95830 | -85.25163 | 18788 ft | 379 kts | 327° |
| 2026-05-04 23:41 | 34.98036 | -85.26862 | 18255 ft | 372 kts | 327° |
| 2026-05-04 23:41 | 35.00204 | -85.28535 | 17737 ft | 366 kts | 327° |
| 2026-05-04 23:41 | 35.02337 | -85.30183 | 17210 ft | 360 kts | 327° |
| 2026-05-04 23:41 | 35.03737 | -85.31266 | 16863 ft | 357 kts | 327° |
| 2026-05-04 23:42 | 35.06491 | -85.33402 | 16164 ft | 352 kts | 327° |
| 2026-05-04 23:42 | 35.08559 | -85.35008 | 15644 ft | 351 kts | 327° |
| 2026-05-04 23:42 | 35.10607 | -85.36600 | 15199 ft | 345 kts | 327° |
| 2026-05-04 23:42 | 35.12630 | -85.38174 | 15048 ft | 347 kts | 327° |
| 2026-05-04 23:43 | 35.14671 | -85.39773 | 15010 ft | 349 kts | 325° |
| 2026-05-04 23:43 | 35.16574 | -85.41606 | 15007 ft | 349 kts | 316° |
| 2026-05-04 23:43 | 35.17708 | -85.42996 | 15007 ft | 349 kts | 313° |
| 2026-05-04 23:43 | 35.19382 | -85.45146 | 15007 ft | 349 kts | 313° |
| 2026-05-04 23:44 | 35.21056 | -85.47275 | 15006 ft | 347 kts | 313° |
| 2026-05-04 23:44 | 35.22732 | -85.49401 | 15007 ft | 347 kts | 313° |
| 2026-05-04 23:44 | 35.24407 | -85.51528 | 15009 ft | 348 kts | 313° |
| 2026-05-04 23:44 | 35.26092 | -85.53669 | 15007 ft | 349 kts | 313° |
| 2026-05-04 23:45 | 35.27776 | -85.55812 | 15007 ft | 349 kts | 313° |
| 2026-05-04 23:45 | 35.29458 | -85.57955 | 15006 ft | 349 kts | 313° |
| 2026-05-04 23:45 | 35.31136 | -85.60097 | 15007 ft | 349 kts | 313° |
| 2026-05-04 23:45 | 35.32817 | -85.62245 | 15007 ft | 349 kts | 313° |
| 2026-05-04 23:46 | 35.34496 | -85.64390 | 15007 ft | 348 kts | 313° |
| 2026-05-04 23:46 | 35.36171 | -85.66533 | 15008 ft | 349 kts | 313° |
| 2026-05-04 23:46 | 35.37849 | -85.68681 | 15008 ft | 349 kts | 313° |
| 2026-05-04 23:46 | 35.39525 | -85.70827 | 15007 ft | 349 kts | 313° |
| 2026-05-04 23:47 | 35.41201 | -85.72975 | 15007 ft | 349 kts | 313° |
| 2026-05-04 23:47 | 35.42877 | -85.75124 | 15007 ft | 349 kts | 313° |
| 2026-05-04 23:47 | 35.44553 | -85.77275 | 15008 ft | 349 kts | 313° |
| 2026-05-04 23:47 | 35.46226 | -85.79424 | 15006 ft | 349 kts | 313° |
| 2026-05-04 23:48 | 35.47903 | -85.81580 | 15007 ft | 349 kts | 313° |
| 2026-05-04 23:48 | 35.49576 | -85.83731 | 15007 ft | 349 kts | 313° |
| 2026-05-04 23:48 | 35.51250 | -85.85886 | 15007 ft | 348 kts | 313° |
| 2026-05-04 23:48 | 35.52915 | -85.88030 | 15007 ft | 347 kts | 313° |
| 2026-05-04 23:49 | 35.54582 | -85.90179 | 15007 ft | 348 kts | 313° |
| 2026-05-04 23:49 | 35.56224 | -85.92305 | 15008 ft | 348 kts | 312° |
| 2026-05-04 23:49 | 35.57859 | -85.94499 | 14815 ft | 348 kts | 311° |
| 2026-05-04 23:49 | 35.59479 | -85.96702 | 14340 ft | 346 kts | 311° |
| 2026-05-04 23:50 | 35.61089 | -85.98884 | 13816 ft | 343 kts | 311° |
| 2026-05-04 23:50 | 35.62686 | -86.01037 | 13288 ft | 339 kts | 312° |
| 2026-05-04 23:50 | 35.64268 | -86.03159 | 12767 ft | 335 kts | 312° |
| 2026-05-04 23:50 | 35.65836 | -86.05258 | 12238 ft | 331 kts | 312° |
| 2026-05-04 23:51 | 35.67385 | -86.07331 | 11715 ft | 328 kts | 312° |
| 2026-05-04 23:51 | 35.68921 | -86.09386 | 11190 ft | 325 kts | 312° |
| 2026-05-04 23:51 | 35.70444 | -86.11424 | 10660 ft | 322 kts | 312° |
| 2026-05-04 23:51 | 35.71845 | -86.13549 | 10213 ft | 317 kts | 306° |
| 2026-05-04 23:52 | 35.73121 | -86.15688 | 10046 ft | 303 kts | 306° |
| 2026-05-04 23:52 | 35.74340 | -86.17713 | 10006 ft | 286 kts | 306° |
| 2026-05-04 23:52 | 35.75529 | -86.19685 | 10011 ft | 290 kts | 306° |
| 2026-05-04 23:52 | 35.76728 | -86.21675 | 10006 ft | 288 kts | 306° |
| 2026-05-04 23:53 | 35.77919 | -86.23657 | 10007 ft | 288 kts | 306° |
| 2026-05-04 23:53 | 35.79110 | -86.25639 | 10006 ft | 288 kts | 306° |
| 2026-05-04 23:53 | 35.80302 | -86.27625 | 10010 ft | 288 kts | 306° |
| 2026-05-04 23:53 | 35.81492 | -86.29611 | 10014 ft | 288 kts | 306° |
| 2026-05-04 23:54 | 35.82682 | -86.31596 | 10008 ft | 288 kts | 306° |
| 2026-05-04 23:54 | 35.83871 | -86.33583 | 10010 ft | 288 kts | 306° |
| 2026-05-04 23:54 | 35.85061 | -86.35572 | 10004 ft | 288 kts | 306° |
| 2026-05-04 23:54 | 35.86249 | -86.37558 | 10005 ft | 288 kts | 306° |
| 2026-05-04 23:55 | 35.87437 | -86.39546 | 10009 ft | 288 kts | 306° |
| 2026-05-04 23:55 | 35.88624 | -86.41534 | 10004 ft | 288 kts | 306° |
| 2026-05-04 23:55 | 35.90997 | -86.45511 | 10011 ft | 288 kts | 306° |
| 2026-05-04 23:56 | 35.92184 | -86.47502 | 9999 ft | 288 kts | 306° |
| 2026-05-04 23:56 | 35.93366 | -86.49504 | 9784 ft | 289 kts | 305° |
| 2026-05-04 23:56 | 35.94552 | -86.51518 | 9302 ft | 291 kts | 305° |
| 2026-05-04 23:56 | 35.95728 | -86.53507 | 9073 ft | 282 kts | 306° |
| 2026-05-04 23:57 | 35.96873 | -86.55434 | 9012 ft | 285 kts | 306° |
| 2026-05-04 23:57 | 35.98048 | -86.57405 | 9002 ft | 284 kts | 307° |
| 2026-05-04 23:57 | 35.99505 | -86.59028 | 8878 ft | 285 kts | 329° |
| 2026-05-04 23:57 | 36.01377 | -86.59788 | 8467 ft | 286 kts | 354° |
| 2026-05-04 23:58 | 36.03333 | -86.59511 | 8134 ft | 281 kts | 15° |
| 2026-05-04 23:58 | 36.05142 | -86.58743 | 8021 ft | 268 kts | 20° |
| 2026-05-04 23:58 | 36.06830 | -86.57943 | 8006 ft | 252 kts | 20° |
| 2026-05-04 23:58 | 36.08419 | -86.57203 | 8005 ft | 236 kts | 20° |
| 2026-05-04 23:59 | 36.09967 | -86.56507 | 8007 ft | 239 kts | 18° |
| 2026-05-04 23:59 | 36.11532 | -86.55823 | 7992 ft | 238 kts | 18° |
| 2026-05-04 23:59 | 36.13094 | -86.55132 | 7757 ft | 239 kts | 18° |
| 2026-05-04 23:59 | 36.14681 | -86.54429 | 7250 ft | 246 kts | 18° |
| 2026-05-05 00:00 | 36.16306 | -86.53712 | 6596 ft | 249 kts | 18° |
| 2026-05-05 00:00 | 36.16836 | -86.53479 | 6398 ft | 248 kts | 18° |
| 2026-05-05 00:00 | 36.19542 | -86.52291 | 5412 ft | 244 kts | 18° |
| 2026-05-05 00:00 | 36.21137 | -86.51593 | 4859 ft | 243 kts | 18° |
| 2026-05-05 00:01 | 36.22726 | -86.50899 | 4310 ft | 240 kts | 18° |
| 2026-05-05 00:01 | 36.24260 | -86.50230 | 4064 ft | 226 kts | 18° |
| 2026-05-05 00:01 | 36.25725 | -86.49592 | 4018 ft | 228 kts | 18° |
| 2026-05-05 00:01 | 36.27186 | -86.48956 | 4011 ft | 223 kts | 18° |
| 2026-05-05 00:02 | 36.28654 | -86.48319 | 4007 ft | 224 kts | 18° |
| 2026-05-05 00:02 | 36.30125 | -86.47681 | 4011 ft | 224 kts | 18° |
| 2026-05-05 00:02 | 36.31596 | -86.47044 | 4001 ft | 224 kts | 18° |
| 2026-05-05 00:02 | 36.33120 | -86.46784 | 4013 ft | 223 kts | 350° |
| 2026-05-05 00:03 | 36.34504 | -86.47576 | 4014 ft | 222 kts | 316° |
| 2026-05-05 00:03 | 36.35308 | -86.49179 | 4017 ft | 221 kts | 287° |
| 2026-05-05 00:03 | 36.35744 | -86.51011 | 4007 ft | 221 kts | 285° |
| 2026-05-05 00:03 | 36.36133 | -86.52856 | 4007 ft | 221 kts | 276° |
| 2026-05-05 00:04 | 36.35907 | -86.54723 | 4013 ft | 222 kts | 246° |
| 2026-05-05 00:04 | 36.35042 | -86.56290 | 4011 ft | 222 kts | 224° |
| 2026-05-05 00:04 | 36.33806 | -86.57432 | 4008 ft | 222 kts | 210° |
| 2026-05-05 00:04 | 36.32401 | -86.58235 | 4008 ft | 223 kts | 200° |
| 2026-05-05 00:05 | 36.30947 | -86.58845 | 4006 ft | 213 kts | 198° |
| 2026-05-05 00:05 | 36.29586 | -86.59390 | 3957 ft | 205 kts | 198° |
| 2026-05-05 00:05 | 36.28283 | -86.59917 | 3640 ft | 190 kts | 198° |
| 2026-05-05 00:05 | 36.27031 | -86.60422 | 3365 ft | 189 kts | 198° |
| 2026-05-05 00:06 | 36.25786 | -86.60924 | 3099 ft | 188 kts | 198° |
| 2026-05-05 00:06 | 36.24549 | -86.61422 | 2842 ft | 187 kts | 198° |
| 2026-05-05 00:06 | 36.23308 | -86.61922 | 2591 ft | 186 kts | 198° |
| 2026-05-05 00:06 | 36.22094 | -86.62411 | 2346 ft | 186 kts | 198° |
| 2026-05-05 00:07 | 36.20868 | -86.62905 | 2099 ft | 185 kts | 198° |
| 2026-05-05 00:07 | 36.19659 | -86.63392 | 1862 ft | 176 kts | 198° |
| 2026-05-05 00:07 | 36.18484 | -86.63865 | 1626 ft | 179 kts | 198° |
| 2026-05-05 00:07 | 36.17305 | -86.64339 | 1383 ft | 178 kts | 198° |
| 2026-05-05 00:08 | 36.16131 | -86.64811 | 1148 ft | 177 kts | 198° |
| 2026-05-05 00:08 | 36.14959 | -86.65282 | 914 ft | 177 kts | 198° |
| 2026-05-05 00:08 | 36.13791 | -86.65752 | 677 ft | 175 kts | 198° |
| 2026-05-05 00:08 | 36.12752 | -86.66168 | 576 ft | 124 kts | 198° |
| 2026-05-05 00:09 | 36.12338 | -86.66340 | 581 ft | 14 kts | 199° |
| 2026-05-05 00:09 | 36.12318 | -86.66349 | 579 ft | 14 kts | 198° |
| 2026-05-05 00:09 | 36.12192 | -86.66401 | 582 ft | 35 kts | 199° |
| 2026-05-05 00:09 | 36.12053 | -86.66543 | 583 ft | 9 kts | 288° |
| 2026-05-05 00:10 | 36.12081 | -86.66577 | 577 ft | 0 kts | 316° |
| 2026-05-05 00:10 | 36.12099 | -86.66578 | 577 ft | 7 kts | 3° |
| 2026-05-05 00:11 | 36.12169 | -86.66553 | 575 ft | 14 kts | 21° |
| 2026-05-05 00:11 | 36.12273 | -86.66540 | 573 ft | 17 kts | 326° |
| 2026-05-05 00:11 | 36.12323 | -86.66702 | 569 ft | 24 kts | 288° |
| 2026-05-05 00:11 | 36.12407 | -86.66900 | 564 ft | 24 kts | 314° |
| 2026-05-05 00:12 | 36.12551 | -86.66905 | 568 ft | 23 kts | 27° |
| 2026-05-05 00:12 | 36.12710 | -86.66881 | 572 ft | 21 kts | 351° |